createdAt,value
2017-09-16T00:00:22.566Z,91.90
2017-09-16T00:02:50.017Z,92.00
2017-09-16T00:05:18.247Z,92.20
2017-09-16T00:07:46.469Z,92.10
2017-09-16T00:10:13.925Z,92.10
2017-09-16T00:12:41.392Z,92.30
2017-09-16T00:15:08.849Z,92.30
2017-09-16T00:17:36.309Z,92.00
2017-09-16T00:20:03.766Z,91.90
2017-09-16T00:22:31.276Z,91.90
2017-09-16T00:24:58.745Z,91.70
2017-09-16T00:27:26.221Z,91.60
2017-09-16T00:29:53.675Z,91.60
2017-09-16T00:32:21.146Z,91.50
2017-09-16T00:34:48.605Z,91.60
2017-09-16T00:37:16.057Z,91.70
2017-09-16T00:39:43.509Z,92.00
2017-09-16T00:42:10.966Z,91.70
2017-09-16T00:44:38.417Z,91.50
2017-09-16T00:47:05.873Z,91.60
2017-09-16T00:49:33.322Z,91.90
2017-09-16T00:52:00.781Z,92.10
2017-09-16T00:54:28.242Z,92.30
2017-09-16T00:56:55.693Z,92.40
2017-09-16T00:59:23.249Z,92.60
2017-09-16T01:01:50.701Z,92.80
2017-09-16T01:04:18.169Z,93.20
2017-09-16T01:06:45.623Z,93.10
2017-09-16T01:09:13.076Z,93.30
2017-09-16T01:11:40.539Z,93.40
2017-09-16T01:14:07.992Z,93.50
2017-09-16T01:16:35.452Z,93.70
2017-09-16T01:19:02.905Z,93.80
2017-09-16T01:21:30.385Z,94.10
2017-09-16T01:23:57.834Z,94.10
2017-09-16T01:26:25.293Z,94.30
2017-09-16T01:28:52.750Z,94.00
2017-09-16T01:31:20.207Z,93.40
2017-09-16T01:33:47.652Z,93.60
2017-09-16T01:36:15.130Z,93.70
2017-09-16T01:38:42.582Z,93.60
2017-09-16T01:41:10.050Z,93.50
2017-09-16T01:43:37.494Z,93.70
2017-09-16T01:46:04.951Z,94.10
2017-09-16T01:48:32.393Z,94.10
2017-09-16T01:50:59.858Z,93.60
2017-09-16T01:53:27.298Z,93.90
2017-09-16T01:55:54.754Z,93.60
2017-09-16T01:58:22.205Z,93.90
2017-09-16T02:00:49.671Z,93.70
2017-09-16T02:03:17.122Z,93.90
2017-09-16T02:05:44.584Z,93.90
2017-09-16T02:08:12.034Z,94.20
2017-09-16T02:10:39.490Z,94.40
2017-09-16T02:13:06.952Z,94.40
2017-09-16T02:15:34.401Z,94.40
2017-09-16T02:18:01.855Z,94.80
2017-09-16T02:20:29.305Z,94.50
2017-09-16T02:22:57.531Z,94.50
2017-09-16T02:25:25.033Z,94.50
2017-09-16T02:27:53.471Z,94.60
2017-09-16T02:30:20.921Z,94.60
2017-09-16T02:32:48.383Z,94.90
2017-09-16T02:35:16.618Z,95.10
2017-09-16T02:37:44.080Z,95.00
2017-09-16T02:40:11.537Z,95.00
2017-09-16T02:42:38.998Z,95.10
2017-09-16T02:45:06.453Z,95.10
2017-09-16T02:47:33.914Z,95.10
2017-09-16T02:50:01.397Z,95.20
2017-09-16T02:52:28.847Z,95.20
2017-09-16T02:54:56.302Z,95.20
2017-09-16T02:57:23.757Z,95.40
2017-09-16T02:59:51.213Z,95.70
2017-09-16T03:02:18.675Z,95.30
2017-09-16T03:04:46.126Z,95.50
2017-09-16T03:07:13.586Z,95.70
2017-09-16T03:09:41.035Z,95.20
2017-09-16T03:12:08.493Z,95.20
2017-09-16T03:14:35.950Z,95.70
2017-09-16T03:17:03.409Z,95.90
2017-09-16T03:19:30.862Z,95.80
2017-09-16T03:21:58.309Z,95.70
2017-09-16T03:24:25.764Z,95.80
2017-09-16T03:26:53.226Z,95.80
2017-09-16T03:29:20.683Z,95.70
2017-09-16T03:31:48.140Z,95.50
2017-09-16T03:34:15.608Z,95.70
2017-09-16T03:36:43.061Z,95.80
2017-09-16T03:39:10.521Z,95.80
2017-09-16T03:41:37.980Z,96.00
2017-09-16T03:44:05.441Z,96.30
2017-09-16T03:46:32.902Z,96.40
2017-09-16T03:49:00.350Z,96.50
2017-09-16T03:51:27.814Z,96.60
2017-09-16T03:53:55.280Z,96.50
2017-09-16T03:56:22.725Z,96.10
2017-09-16T03:58:50.189Z,96.00
2017-09-16T04:01:29.385Z,96.10
2017-09-16T04:03:57.609Z,96.10
2017-09-16T04:06:25.070Z,96.10
2017-09-16T04:08:52.524Z,96.00
2017-09-16T04:11:19.978Z,96.00
2017-09-16T04:13:47.438Z,95.80
2017-09-16T04:16:14.894Z,95.70
2017-09-16T04:18:42.351Z,95.80
2017-09-16T04:21:09.805Z,95.70
2017-09-16T04:23:37.249Z,95.60
2017-09-16T04:26:04.711Z,95.80
2017-09-16T04:28:32.167Z,96.20
2017-09-16T04:30:59.619Z,96.30
2017-09-16T04:33:27.073Z,96.50
2017-09-16T04:35:54.561Z,96.70
2017-09-16T04:38:22.009Z,96.80
2017-09-16T04:40:49.470Z,96.80
2017-09-16T04:43:16.913Z,96.90
2017-09-16T04:45:44.374Z,97.00
2017-09-16T04:48:11.826Z,97.10
2017-09-16T04:50:39.290Z,97.70
2017-09-16T04:53:06.741Z,97.80
2017-09-16T04:55:34.199Z,97.80
2017-09-16T04:58:01.672Z,97.70
2017-09-16T05:00:29.109Z,97.80
2017-09-16T05:02:56.562Z,97.70
2017-09-16T05:05:24.014Z,97.80
2017-09-16T05:07:51.466Z,98.00
2017-09-16T05:10:18.913Z,98.20
2017-09-16T05:12:46.378Z,98.10
2017-09-16T05:15:13.821Z,98.10
2017-09-16T05:17:41.285Z,98.10
2017-09-16T05:20:08.729Z,97.90
2017-09-16T05:22:36.953Z,97.90
2017-09-16T05:25:04.416Z,97.90
2017-09-16T05:27:31.870Z,97.50
2017-09-16T05:29:59.326Z,97.50
2017-09-16T05:32:26.782Z,97.40
2017-09-16T05:34:54.233Z,97.50
2017-09-16T05:37:21.685Z,97.60
2017-09-16T05:39:49.138Z,97.60
2017-09-16T05:42:16.590Z,97.60
2017-09-16T05:44:44.037Z,97.70
2017-09-16T05:47:11.511Z,97.70
2017-09-16T05:49:38.984Z,97.70
2017-09-16T05:52:06.529Z,97.70
2017-09-16T05:54:34.014Z,97.50
2017-09-16T05:57:01.457Z,97.60
2017-09-16T05:59:30.537Z,97.40
2017-09-16T06:01:58.013Z,97.40
2017-09-16T06:04:25.464Z,97.70
2017-09-16T06:06:52.912Z,97.50
2017-09-16T06:09:20.365Z,97.50
2017-09-16T06:11:47.915Z,97.30
2017-09-16T06:14:15.377Z,97.00
2017-09-16T06:16:42.818Z,97.10
2017-09-16T06:19:10.294Z,97.10
2017-09-16T06:21:37.750Z,97.10
2017-09-16T06:24:05.209Z,96.90
2017-09-16T06:26:32.652Z,96.80
2017-09-16T06:29:00.106Z,96.70
2017-09-16T06:31:27.558Z,96.70
2017-09-16T06:33:55.897Z,96.40
2017-09-16T06:36:23.411Z,96.40
2017-09-16T06:38:50.878Z,96.30
2017-09-16T06:41:18.329Z,96.50
2017-09-16T06:43:45.773Z,96.60
2017-09-16T06:46:13.989Z,96.40
2017-09-16T06:48:41.459Z,96.40
2017-09-16T06:51:08.954Z,95.70
2017-09-16T06:53:37.185Z,95.20
2017-09-16T06:56:04.635Z,95.20
2017-09-16T06:58:32.095Z,94.90
2017-09-16T07:00:59.541Z,95.00
2017-09-16T07:03:27.011Z,94.90
2017-09-16T07:05:54.475Z,94.90
2017-09-16T07:08:21.926Z,95.20
2017-09-16T07:10:49.385Z,95.00
2017-09-16T07:13:16.829Z,94.70
2017-09-16T07:15:44.296Z,93.70
2017-09-16T07:18:11.738Z,93.80
2017-09-16T07:20:39.189Z,94.10
2017-09-16T07:23:06.658Z,94.60
2017-09-16T07:25:34.174Z,94.20
2017-09-16T07:28:02.400Z,93.80
2017-09-16T07:30:30.620Z,94.30
2017-09-16T07:32:58.842Z,95.00
2017-09-16T07:35:26.317Z,94.90
2017-09-16T07:37:53.764Z,94.50
2017-09-16T07:40:21.226Z,93.90
2017-09-16T07:42:48.673Z,93.70
2017-09-16T07:45:16.943Z,93.60
2017-09-16T07:47:44.397Z,93.60
2017-09-16T07:50:11.842Z,93.50
2017-09-16T07:52:39.330Z,93.30
2017-09-16T07:55:06.806Z,93.10
2017-09-16T07:57:34.261Z,93.00
2017-09-16T08:00:01.730Z,92.30
2017-09-16T08:02:29.173Z,92.70
2017-09-16T08:04:57.334Z,92.20
2017-09-16T08:07:24.798Z,92.40
2017-09-16T08:09:52.250Z,92.20
2017-09-16T08:12:19.774Z,92.60
2017-09-16T08:14:47.215Z,92.50
2017-09-16T08:17:14.673Z,92.40
2017-09-16T08:19:42.117Z,91.90
2017-09-16T08:22:10.350Z,91.80
2017-09-16T08:24:37.813Z,91.80
2017-09-16T08:27:05.282Z,91.50
2017-09-16T08:29:32.726Z,91.50
2017-09-16T08:32:00.416Z,91.00
2017-09-16T08:34:28.630Z,90.00
2017-09-16T08:36:56.086Z,90.00
2017-09-16T08:39:23.547Z,90.60
2017-09-16T08:41:51.042Z,90.00
2017-09-16T08:44:18.509Z,89.80
2017-09-16T08:46:45.982Z,90.00
2017-09-16T08:49:14.227Z,90.20
2017-09-16T08:51:41.689Z,90.20
2017-09-16T08:54:09.183Z,90.30
2017-09-16T08:56:37.395Z,91.00
2017-09-16T08:59:04.858Z,90.60
2017-09-16T09:01:32.334Z,90.60
2017-09-16T09:03:59.806Z,90.70
2017-09-16T09:06:27.261Z,90.80
2017-09-16T09:08:54.716Z,90.50
2017-09-16T09:11:22.161Z,90.50
2017-09-16T09:13:49.622Z,90.50
2017-09-16T09:16:17.083Z,91.10
2017-09-16T09:18:44.537Z,91.60
2017-09-16T09:21:11.994Z,92.10
2017-09-16T09:23:39.440Z,92.10
2017-09-16T09:26:06.891Z,92.10
2017-09-16T09:28:34.350Z,92.00
2017-09-16T09:31:01.800Z,91.50
2017-09-16T09:33:29.260Z,91.70
2017-09-16T09:35:56.698Z,91.70
2017-09-16T09:38:24.173Z,92.00
2017-09-16T09:40:51.650Z,92.10
2017-09-16T09:43:19.078Z,92.60
2017-09-16T09:45:46.548Z,92.50
2017-09-16T09:48:13.985Z,92.20
2017-09-16T09:50:41.443Z,92.60
2017-09-16T09:53:08.885Z,92.90
2017-09-16T09:55:36.336Z,93.00
2017-09-16T09:58:03.783Z,92.60
2017-09-16T10:00:32.005Z,93.10
2017-09-16T10:02:59.450Z,93.10
2017-09-16T10:05:26.906Z,92.70
2017-09-16T10:07:54.366Z,92.70
2017-09-16T10:10:21.814Z,92.20
2017-09-16T10:12:49.287Z,92.40
2017-09-16T10:15:16.737Z,92.30
2017-09-16T10:17:44.190Z,91.90
2017-09-16T10:20:11.637Z,91.20
2017-09-16T10:22:39.086Z,91.00
2017-09-16T10:25:06.541Z,90.30
2017-09-16T10:27:33.993Z,90.00
2017-09-16T10:30:01.445Z,88.00
2017-09-16T10:32:29.668Z,85.30
2017-09-16T10:34:57.119Z,85.20
2017-09-16T10:37:24.572Z,86.10
2017-09-16T10:39:52.043Z,85.80
2017-09-16T10:42:19.488Z,83.80
2017-09-16T10:44:46.955Z,82.10
2017-09-16T10:47:14.414Z,81.00
2017-09-16T10:49:41.870Z,79.40
2017-09-16T10:52:09.338Z,77.40
2017-09-16T10:54:36.798Z,78.20
2017-09-16T10:57:04.253Z,76.40
2017-09-16T10:59:31.713Z,76.30
2017-09-16T11:01:59.182Z,77.30
2017-09-16T11:04:26.643Z,77.70
2017-09-16T11:06:54.906Z,82.90
2017-09-16T11:09:22.358Z,82.80
2017-09-16T11:11:49.817Z,84.10
2017-09-16T11:14:17.274Z,84.10
2017-09-16T11:16:44.733Z,84.50
2017-09-16T11:19:12.181Z,85.80
2017-09-16T11:21:39.665Z,85.40
2017-09-16T11:24:07.890Z,84.80
2017-09-16T11:26:35.350Z,84.40
2017-09-16T11:29:02.806Z,83.00
2017-09-16T11:31:30.272Z,85.10
2017-09-16T11:33:57.729Z,85.30
2017-09-16T11:36:25.192Z,84.20
2017-09-16T11:38:52.636Z,83.60
2017-09-16T11:41:20.093Z,81.50
2017-09-16T11:43:47.558Z,81.30
2017-09-16T11:46:15.018Z,81.60
2017-09-16T11:48:42.506Z,81.00
2017-09-16T11:51:10.725Z,75.60
2017-09-16T11:53:38.186Z,75.20
2017-09-16T11:56:05.643Z,73.70
2017-09-16T11:58:33.101Z,71.40
2017-09-16T12:01:00.661Z,70.00
2017-09-16T12:03:28.223Z,69.40
2017-09-16T12:05:55.680Z,71.00
2017-09-16T12:08:23.131Z,67.80
2017-09-16T12:10:50.600Z,66.30
2017-09-16T12:13:18.061Z,65.80
2017-09-16T12:15:46.289Z,64.50
2017-09-16T12:18:14.517Z,66.50
2017-09-16T12:20:41.973Z,66.50
2017-09-16T12:23:09.480Z,65.50
2017-09-16T12:25:37.690Z,61.50
2017-09-16T12:28:05.157Z,61.40
2017-09-16T12:30:32.621Z,60.30
2017-09-16T12:33:00.068Z,61.80
2017-09-16T12:35:27.521Z,60.80
2017-09-16T12:37:54.971Z,60.00
2017-09-16T12:40:22.426Z,61.00
2017-09-16T12:42:49.870Z,61.80
2017-09-16T12:45:17.341Z,61.30
2017-09-16T12:47:44.805Z,59.10
2017-09-16T12:50:12.266Z,59.40
2017-09-16T12:52:39.720Z,58.20
2017-09-16T12:55:07.184Z,57.50
2017-09-16T12:57:34.640Z,59.90
2017-09-16T13:00:02.089Z,58.00
2017-09-16T13:02:29.537Z,58.30
2017-09-16T13:04:56.993Z,58.70
2017-09-16T13:07:24.447Z,58.30
2017-09-16T13:09:51.893Z,57.10
2017-09-16T13:12:19.341Z,58.70
2017-09-16T13:14:47.569Z,57.10
2017-09-16T13:17:15.026Z,57.00
2017-09-16T13:19:42.477Z,55.50
2017-09-16T13:22:09.933Z,56.30
2017-09-16T13:24:37.395Z,57.40
2017-09-16T13:27:04.859Z,57.40
2017-09-16T13:29:32.337Z,58.40
2017-09-16T13:31:59.797Z,57.70
2017-09-16T13:34:27.245Z,56.30
2017-09-16T13:36:54.770Z,57.20
2017-09-16T13:39:22.211Z,54.10
2017-09-16T13:41:49.685Z,55.70
2017-09-16T13:44:17.126Z,57.80
2017-09-16T13:46:44.574Z,59.50
2017-09-16T13:49:12.031Z,59.60
2017-09-16T13:51:39.512Z,57.60
2017-09-16T13:54:06.969Z,59.80
2017-09-16T13:56:34.443Z,57.70
2017-09-16T13:59:01.892Z,58.40
2017-09-16T14:01:29.345Z,61.20
2017-09-16T14:03:56.804Z,58.40
2017-09-16T14:06:24.280Z,59.10
2017-09-16T14:08:51.734Z,60.20
2017-09-16T14:11:19.215Z,64.30
2017-09-16T14:13:46.662Z,65.90
2017-09-16T14:16:14.129Z,66.30
2017-09-16T14:18:41.594Z,65.00
2017-09-16T14:21:09.823Z,63.40
2017-09-16T14:23:37.278Z,63.40
2017-09-16T14:26:04.752Z,64.00
2017-09-16T14:28:32.210Z,64.10
2017-09-16T14:30:59.675Z,66.60
2017-09-16T14:33:27.133Z,65.20
2017-09-16T14:35:54.658Z,66.90
2017-09-16T14:38:22.125Z,67.90
2017-09-16T14:40:49.582Z,70.00
2017-09-16T14:43:17.045Z,68.90
2017-09-16T14:45:44.505Z,71.30
2017-09-16T14:48:11.965Z,71.60
2017-09-16T14:50:39.438Z,71.40
2017-09-16T14:53:06.894Z,73.20
2017-09-16T14:55:34.360Z,73.00
2017-09-16T14:58:01.850Z,73.90
2017-09-16T15:00:29.322Z,73.10
2017-09-16T15:02:56.802Z,73.60
2017-09-16T15:05:24.248Z,74.80
2017-09-16T15:07:51.726Z,74.30
2017-09-16T15:10:19.178Z,74.10
2017-09-16T15:12:46.641Z,73.70
2017-09-16T15:15:14.106Z,73.00
2017-09-16T15:17:41.569Z,73.30
2017-09-16T15:20:09.056Z,73.60
2017-09-16T15:22:37.285Z,71.30
2017-09-16T15:25:04.750Z,71.30
2017-09-16T15:27:32.210Z,72.20
2017-09-16T15:29:59.674Z,72.30
2017-09-16T15:32:27.161Z,72.50
2017-09-16T15:34:55.437Z,69.50
2017-09-16T15:37:23.658Z,67.50
2017-09-16T15:39:51.114Z,67.50
2017-09-16T15:42:18.567Z,66.10
2017-09-16T15:44:46.046Z,65.30
2017-09-16T15:47:13.498Z,63.50
2017-09-16T15:49:40.952Z,63.90
2017-09-16T15:52:08.437Z,62.70
2017-09-16T15:54:35.890Z,62.20
2017-09-16T15:57:03.345Z,61.60
2017-09-16T15:59:30.813Z,59.90
2017-09-16T16:01:58.266Z,61.10
2017-09-16T16:04:25.726Z,60.90
2017-09-16T16:06:53.232Z,61.80
2017-09-16T16:09:20.682Z,64.70
2017-09-16T16:11:48.135Z,68.70
2017-09-16T16:14:15.606Z,70.70
2017-09-16T16:16:43.066Z,73.20
2017-09-16T16:19:10.546Z,72.70
2017-09-16T16:21:38.003Z,72.20
2017-09-16T16:24:05.466Z,72.50
2017-09-16T16:26:32.927Z,72.80
2017-09-16T16:29:00.377Z,72.20
2017-09-16T16:31:27.849Z,71.30
2017-09-16T16:33:55.306Z,72.20
2017-09-16T16:36:22.775Z,73.20
2017-09-16T16:38:50.302Z,74.20
2017-09-16T16:41:17.758Z,73.70
2017-09-16T16:43:45.209Z,74.10
2017-09-16T16:46:12.673Z,76.30
2017-09-16T16:48:40.121Z,75.50
2017-09-16T16:51:07.582Z,74.30
2017-09-16T16:53:35.059Z,75.30
2017-09-16T16:56:02.510Z,75.20
2017-09-16T16:58:29.962Z,74.80
2017-09-16T17:00:57.453Z,75.10
2017-09-16T17:03:24.901Z,76.00
2017-09-16T17:05:52.353Z,76.40
2017-09-16T17:08:19.807Z,77.00
2017-09-16T17:10:47.261Z,77.90
2017-09-16T17:13:14.714Z,79.40
2017-09-16T17:15:42.175Z,80.20
2017-09-16T17:18:09.626Z,79.80
2017-09-16T17:20:37.127Z,79.40
2017-09-16T17:23:05.333Z,78.70
2017-09-16T17:25:32.894Z,78.60
2017-09-16T17:28:00.355Z,79.40
2017-09-16T17:30:27.810Z,80.70
2017-09-16T17:32:55.277Z,82.20
2017-09-16T17:35:22.728Z,82.80
2017-09-16T17:37:50.203Z,83.30
2017-09-16T17:40:17.664Z,84.10
2017-09-16T17:42:45.121Z,85.10
2017-09-16T17:45:12.595Z,85.80
2017-09-16T17:47:40.037Z,86.70
2017-09-16T17:50:07.522Z,88.00
2017-09-16T17:52:35.134Z,88.50
2017-09-16T17:55:02.819Z,89.10
2017-09-16T17:57:30.599Z,89.00
2017-09-16T17:59:58.181Z,89.00
2017-09-16T18:02:26.421Z,90.50
2017-09-16T18:04:53.869Z,90.50
2017-09-16T18:07:21.329Z,90.50
2017-09-16T18:09:48.822Z,91.00
2017-09-16T18:12:17.043Z,91.70
2017-09-16T18:14:44.496Z,91.40
2017-09-16T18:17:11.942Z,91.70
2017-09-16T18:19:39.399Z,91.70
2017-09-16T18:22:06.849Z,92.00
2017-09-16T18:24:34.301Z,92.00
2017-09-16T18:27:01.743Z,92.20
2017-09-16T18:29:29.962Z,91.80
2017-09-16T18:31:57.426Z,91.80
2017-09-16T18:34:24.883Z,92.30
2017-09-16T18:36:52.330Z,92.30
2017-09-16T18:39:40.873Z,92.70
2017-09-16T18:42:10.760Z,92.90
2017-09-16T18:44:42.441Z,93.70
2017-09-16T18:47:11.333Z,93.70
2017-09-16T18:49:38.930Z,94.10
2017-09-16T18:52:06.603Z,94.40
2017-09-16T18:54:34.474Z,94.60
2017-09-16T18:57:02.196Z,94.90
2017-09-16T18:59:29.781Z,95.30
2017-09-16T19:01:57.468Z,95.70
2017-09-16T19:04:24.986Z,95.90
2017-09-16T19:06:52.597Z,96.10
2017-09-16T19:09:20.098Z,96.20
2017-09-16T19:11:47.723Z,96.10
2017-09-16T19:14:16.007Z,96.10
2017-09-16T19:16:44.402Z,95.70
2017-09-16T19:19:11.893Z,95.70
2017-09-16T19:21:39.422Z,95.50
2017-09-16T19:24:07.026Z,95.30
2017-09-16T19:26:34.710Z,95.40
2017-09-16T19:29:02.175Z,95.30
2017-09-16T19:31:30.492Z,95.90
2017-09-16T19:33:57.968Z,95.80
2017-09-16T19:36:25.483Z,96.00
2017-09-16T19:38:52.934Z,96.20
2017-09-16T19:41:21.169Z,96.60
2017-09-16T19:43:48.613Z,96.60
2017-09-16T19:46:16.084Z,96.60
2017-09-16T19:48:43.550Z,96.80
2017-09-16T19:51:11.019Z,96.80
2017-09-16T19:53:38.472Z,96.80
2017-09-16T19:56:05.954Z,96.70
2017-09-16T19:58:34.218Z,97.00
2017-09-16T20:01:02.479Z,96.80
2017-09-16T20:03:29.934Z,96.80
2017-09-16T20:05:57.399Z,96.70
2017-09-16T20:08:24.857Z,96.70
2017-09-16T20:10:53.098Z,97.10
2017-09-16T20:13:20.562Z,97.00
2017-09-16T20:15:48.031Z,97.00
2017-09-16T20:18:15.490Z,96.90
2017-09-16T20:20:42.947Z,97.00
2017-09-16T20:23:10.413Z,97.00
2017-09-16T20:25:37.884Z,97.10
2017-09-16T20:28:05.367Z,97.30
2017-09-16T20:30:32.859Z,97.30
2017-09-16T20:33:00.315Z,97.30
2017-09-16T20:35:27.776Z,97.40
2017-09-16T20:37:55.240Z,97.50
2017-09-16T20:40:22.693Z,97.60
2017-09-16T20:42:50.917Z,97.30
2017-09-16T20:45:18.385Z,97.40
2017-09-16T20:47:45.847Z,97.40
2017-09-16T20:50:13.314Z,97.70
2017-09-16T20:52:40.769Z,97.80
2017-09-16T20:55:08.243Z,97.80
2017-09-16T20:57:35.701Z,97.70
2017-09-16T21:00:03.180Z,97.70
2017-09-16T21:02:30.646Z,97.80
2017-09-16T21:04:58.092Z,97.90
2017-09-16T21:07:25.565Z,97.90
2017-09-16T21:09:53.019Z,98.00
2017-09-16T21:12:20.477Z,97.80
2017-09-16T21:14:47.942Z,97.70
2017-09-16T21:17:16.169Z,97.50
2017-09-16T21:19:43.622Z,97.50
2017-09-16T21:22:11.110Z,97.50
2017-09-16T21:24:38.562Z,97.50
2017-09-16T21:27:06.027Z,97.50
2017-09-16T21:29:33.501Z,97.40
2017-09-16T21:32:00.982Z,97.40
2017-09-16T21:34:28.449Z,97.40
2017-09-16T21:36:55.908Z,97.40
2017-09-16T21:39:23.384Z,97.30
2017-09-16T21:41:50.851Z,97.30
2017-09-16T21:44:18.349Z,97.20
2017-09-16T21:46:45.799Z,97.20
2017-09-16T21:49:13.260Z,97.10
2017-09-16T21:51:40.711Z,97.10
2017-09-16T21:54:08.172Z,97.10
2017-09-16T21:56:35.632Z,97.20
2017-09-16T21:59:03.089Z,97.00
2017-09-16T22:01:30.557Z,97.10
2017-09-16T22:03:58.783Z,97.20
2017-09-16T22:06:26.250Z,97.20
2017-09-16T22:08:53.713Z,97.40
2017-09-16T22:11:21.172Z,97.40
2017-09-16T22:13:48.638Z,97.70
2017-09-16T22:16:16.090Z,97.60
2017-09-16T22:18:43.558Z,97.60
2017-09-16T22:21:11.006Z,97.70
2017-09-16T22:23:38.462Z,97.60
2017-09-16T22:26:05.930Z,97.50
2017-09-16T22:31:20.792Z,97.60
2017-09-16T22:33:48.233Z,97.80
2017-09-16T22:36:15.689Z,97.90
2017-09-16T22:38:43.152Z,98.10
2017-09-16T22:41:10.609Z,98.30
2017-09-16T22:43:38.150Z,98.20
2017-09-16T22:46:05.603Z,98.20
2017-09-16T22:48:33.073Z,98.20
2017-09-16T22:51:00.558Z,98.10
2017-09-16T22:53:28.014Z,98.10
2017-09-16T22:55:55.469Z,98.10
2017-09-16T22:58:22.938Z,98.20
2017-09-16T23:00:50.381Z,98.20
2017-09-16T23:03:17.841Z,98.30
2017-09-16T23:05:45.302Z,98.30
2017-09-16T23:08:12.778Z,98.40
2017-09-16T23:10:40.230Z,98.40
2017-09-16T23:13:07.689Z,98.80
2017-09-16T23:15:35.146Z,98.50
2017-09-16T23:18:02.601Z,98.40
2017-09-16T23:20:30.065Z,98.50
2017-09-16T23:22:57.566Z,98.80
2017-09-16T23:25:25.032Z,98.60
2017-09-16T23:27:52.485Z,98.70
2017-09-16T23:30:19.949Z,98.70
2017-09-16T23:32:47.401Z,98.80
2017-09-16T23:35:14.867Z,98.70
2017-09-16T23:37:42.341Z,98.60
2017-09-16T23:40:09.789Z,98.50
2017-09-16T23:42:37.261Z,98.30
2017-09-16T23:45:04.722Z,98.30
2017-09-16T23:47:32.177Z,98.30
2017-09-16T23:49:59.642Z,98.30
2017-09-16T23:52:27.106Z,98.30
2017-09-16T23:54:54.553Z,98.60
2017-09-16T23:57:22.172Z,98.30
2017-09-16T23:59:49.641Z,98.00
